Time;durP1;ratioP1;P1;durP2;ratioP2;P2;SDS_P1;SDS_P2;PMS_P1;PMS_P2;Temp;Humidity;BMP_temperature;BMP_pressure;BME280_temperature;BME280_humidity;BME280_pressure;Samples;Min_cycle;Max_cycle;Signal;HPM_P1;HPM_P2
2022/07/29 00:01:08;;;;;;;4.18;2.67;;;24.00;66.30;;;;;;4973541;28;20047;-78
2022/07/29 00:03:45;;;;;;;4.15;2.83;;;24.00;66.40;;;;;;5004980;28;20051;-91
2022/07/29 00:06:14;;;;;;;6.35;2.65;;;23.90;66.50;;;;;;4976798;28;20046;-86
2022/07/29 00:08:42;;;;;;;4.95;3.00;;;24.00;66.70;;;;;;4990995;28;20054;-87
2022/07/29 00:11:09;;;;;;;8.30;3.63;;;24.00;66.70;;;;;;4988118;28;20053;-83
2022/07/29 00:13:37;;;;;;;5.03;3.08;;;24.00;66.70;;;;;;4974937;28;20035;-80
2022/07/29 00:16:04;;;;;;;4.63;2.75;;;23.90;66.80;;;;;;5005617;28;20054;-78
2022/07/29 00:18:32;;;;;;;4.47;2.50;;;23.90;67.00;;;;;;4965941;28;20517;-86
2022/07/29 00:20:59;;;;;;;3.97;2.80;;;24.00;67.20;;;;;;4990619;28;20443;-81
2022/07/29 00:23:27;;;;;;;5.05;3.20;;;23.90;67.10;;;;;;4988221;28;20054;-82
2022/07/29 00:25:56;;;;;;;4.80;2.55;;;23.90;67.20;;;;;;5005958;28;20488;-87
2022/07/29 00:28:24;;;;;;;3.55;2.70;;;23.90;67.20;;;;;;4976592;28;20042;-85
2022/07/29 00:30:51;;;;;;;4.93;2.85;;;23.90;67.20;;;;;;5001035;28;20057;-81
2022/07/29 00:33:19;;;;;;;3.78;2.55;;;23.90;67.10;;;;;;4986403;28;20045;-82
2022/07/29 00:35:47;;;;;;;4.63;2.80;;;23.90;67.10;;;;;;4982109;28;20579;-81
2022/07/29 00:38:17;;;;;;;5.35;2.45;;;24.00;67.10;;;;;;4968954;28;20054;-88
2022/07/29 00:40:45;;;;;;;3.80;2.58;;;23.90;67.10;;;;;;5000066;28;20062;-80
2022/07/29 00:43:14;;;;;;;2.88;2.28;;;23.90;67.30;;;;;;4979315;28;20137;-78
2022/07/29 00:45:41;;;;;;;3.78;2.85;;;23.90;67.40;;;;;;5004666;28;20050;-81
2022/07/29 00:48:10;;;;;;;4.95;2.50;;;23.80;67.40;;;;;;4986481;28;20049;-85
2022/07/29 00:50:38;;;;;;;3.53;2.30;;;23.90;67.40;;;;;;5008973;28;20057;-82
2022/07/29 00:53:07;;;;;;;3.75;2.28;;;23.80;67.40;;;;;;5008407;28;20050;-79
2022/07/29 00:55:35;;;;;;;3.78;2.63;;;23.80;67.20;;;;;;4998592;28;20423;-78
2022/07/29 00:58:03;;;;;;;6.18;2.28;;;23.80;67.20;;;;;;4991036;28;20138;-80
2022/07/29 01:00:31;;;;;;;2.30;1.90;;;23.80;67.30;;;;;;5014755;28;20042;-77
2022/07/29 01:02:58;;;;;;;2.88;2.10;;;23.70;67.30;;;;;;4992807;28;20558;-86
2022/07/29 01:05:27;;;;;;;3.83;2.25;;;23.70;67.20;;;;;;4999884;28;20047;-79
2022/07/29 01:08:15;;;;;;;2.78;2.00;;;23.60;67.40;;;;;;5005155;28;20038;-80
2022/07/29 01:10:44;;;;;;;2.90;2.13;;;23.70;67.30;;;;;;5003893;28;20424;-84
2022/07/29 01:13:14;;;;;;;4.03;1.95;;;23.70;67.10;;;;;;4988759;28;20101;-87
2022/07/29 01:15:48;;;;;;;3.60;2.20;;;23.70;67.10;;;;;;4993734;28;20512;-91
2022/07/29 01:18:36;;;;;;;5.22;2.20;;;23.70;67.20;;;;;;4963781;28;20074;-78
2022/07/29 01:21:06;;;;;;;4.53;2.42;;;23.70;67.30;;;;;;4973369;28;20115;-79
2022/07/29 01:24:24;;;;;;;4.00;2.30;;;23.60;67.40;;;;;;4971415;28;20034;-82
2022/07/29 01:27:46;;;;;;;2.33;2.13;;;23.60;67.50;;;;;;4960307;28;20058;-84
2022/07/29 01:30:14;;;;;;;2.57;2.03;;;23.70;67.60;;;;;;4949638;28;20051;-78
2022/07/29 01:32:47;;;;;;;3.17;2.33;;;23.60;67.60;;;;;;4990164;28;20043;-78
2022/07/29 01:35:28;;;;;;;3.58;2.28;;;23.60;67.80;;;;;;4987840;28;20094;-89
2022/07/29 01:38:21;;;;;;;3.80;2.30;;;23.60;67.70;;;;;;4987330;28;20054;-80
2022/07/29 01:40:52;;;;;;;2.85;2.55;;;23.70;67.80;;;;;;4983650;28;20052;-86
2022/07/29 01:43:26;;;;;;;3.67;2.50;;;23.70;68.50;;;;;;4974833;28;20043;-77
2022/07/29 01:46:02;;;;;;;4.38;2.83;;;23.70;67.70;;;;;;4985300;28;20508;-79
2022/07/29 01:48:48;;;;;;;4.40;2.65;;;23.70;67.80;;;;;;5002838;28;20485;-80
2022/07/29 01:51:39;;;;;;;3.70;2.58;;;23.70;68.00;;;;;;4997826;28;20055;-77
2022/07/29 01:54:20;;;;;;;4.07;2.63;;;23.70;68.20;;;;;;4988878;28;20043;-78
2022/07/29 01:56:50;;;;;;;2.88;2.25;;;23.70;68.40;;;;;;4985012;28;20052;-77
2022/07/29 01:59:19;;;;;;;3.40;2.40;;;23.60;68.20;;;;;;4986044;28;20504;-77
2022/07/29 02:01:49;;;;;;;4.03;2.65;;;23.60;68.70;;;;;;4983258;28;20039;-77
2022/07/29 02:04:22;;;;;;;3.85;2.60;;;23.60;68.40;;;;;;4983204;28;22007;-81
2022/07/29 02:07:01;;;;;;;3.75;2.72;;;23.70;68.60;;;;;;4989333;28;20050;-78
2022/07/29 02:09:31;;;;;;;4.57;2.97;;;23.70;68.70;;;;;;4981860;28;20105;-78
2022/07/29 02:12:01;;;;;;;5.25;2.58;;;23.70;68.60;;;;;;4972779;28;20058;-78
2022/07/29 02:14:33;;;;;;;4.40;2.92;;;23.60;68.90;;;;;;4971472;28;20038;-79
2022/07/29 02:17:04;;;;;;;6.22;3.22;;;23.60;68.80;;;;;;4984920;28;20078;-78
2022/07/29 02:19:32;;;;;;;5.95;2.85;;;23.60;68.90;;;;;;4973137;28;20042;-78
2022/07/29 02:22:01;;;;;;;4.20;2.65;;;23.60;68.90;;;;;;4986691;28;20139;-78
2022/07/29 02:24:30;;;;;;;4.82;3.00;;;23.60;69.20;;;;;;5001142;28;20047;-79
2022/07/29 02:27:00;;;;;;;2.88;2.58;;;23.60;69.30;;;;;;5002988;28;20053;-78
2022/07/29 02:29:29;;;;;;;4.85;2.78;;;23.60;69.60;;;;;;4984167;28;20108;-78
2022/07/29 02:31:59;;;;;;;5.25;2.95;;;23.60;69.20;;;;;;4986410;28;20051;-79
2022/07/29 02:34:28;;;;;;;6.03;2.63;;;23.60;69.60;;;;;;4987956;28;20046;-78
2022/07/29 02:36:56;;;;;;;4.78;2.65;;;23.50;69.60;;;;;;4986885;28;20137;-79
2022/07/29 02:39:26;;;;;;;5.65;2.97;;;23.50;69.70;;;;;;5001172;28;20046;-78
2022/07/29 02:42:11;;;;;;;3.97;2.65;;;23.50;69.30;;;;;;4977107;28;20502;-78
2022/07/29 02:44:38;;;;;;;5.70;3.05;;;23.50;69.30;;;;;;4997689;28;20043;-78
2022/07/29 02:47:30;;;;;;;5.95;2.67;;;23.50;69.90;;;;;;5000506;28;20053;-78
2022/07/29 02:50:32;;;;;;;3.73;2.60;;;23.50;70.20;;;;;;4984446;28;20109;-78
2022/07/29 02:53:07;;;;;;;4.80;3.07;;;23.50;70.00;;;;;;4976202;28;20497;-78
2022/07/29 02:55:44;;;;;;;6.00;2.92;;;23.50;70.80;;;;;;4970707;28;20303;-78
2022/07/29 02:58:29;;;;;;;7.22;3.78;;;23.40;70.20;;;;;;4983821;28;20061;-79
2022/07/29 03:01:21;;;;;;;4.07;2.90;;;23.40;71.00;;;;;;4987017;28;20046;-79
2022/07/29 03:03:51;;;;;;;4.07;3.20;;;23.40;71.70;;;;;;4966756;28;20121;-78
2022/07/29 03:06:22;;;;;;;5.53;3.25;;;23.30;71.40;;;;;;4979598;28;20056;-78
2022/07/29 03:09:07;;;;;;;8.40;2.95;;;23.30;70.80;;;;;;4982560;28;20404;-77
2022/07/29 03:11:41;;;;;;;5.65;3.03;;;23.30;70.50;;;;;;4982006;28;20447;-78
2022/07/29 03:14:18;;;;;;;5.40;3.00;;;23.30;70.80;;;;;;4973844;28;20094;-78
2022/07/29 03:16:47;;;;;;;5.00;3.40;;;23.30;71.00;;;;;;4976304;28;20046;-78
2022/07/29 03:19:16;;;;;;;3.88;3.28;;;23.30;70.90;;;;;;4968909;28;20081;-78
2022/07/29 03:21:43;;;;;;;5.97;3.50;;;23.30;71.30;;;;;;4996148;28;20781;-78
2022/07/29 03:24:23;;;;;;;5.70;2.90;;;23.30;71.30;;;;;;4983932;28;20042;-77
2022/07/29 03:26:51;;;;;;;5.43;3.20;;;23.20;71.80;;;;;;4973051;28;20154;-78
2022/07/29 03:29:18;;;;;;;4.97;3.40;;;23.10;71.70;;;;;;4982355;28;20046;-78
2022/07/29 03:31:46;;;;;;;7.90;3.30;;;23.20;71.80;;;;;;4964104;28;20417;-79
2022/07/29 03:34:14;;;;;;;7.47;3.35;;;23.10;72.30;;;;;;4965202;28;20054;-78
2022/07/29 03:36:42;;;;;;;6.00;3.40;;;23.10;72.40;;;;;;4977760;28;20531;-78
2022/07/29 03:39:13;;;;;;;4.65;3.40;;;23.10;72.70;;;;;;4985526;28;20523;-78
2022/07/29 03:41:42;;;;;;;7.63;3.30;;;23.10;72.90;;;;;;4983864;28;20042;-78
2022/07/29 03:44:11;;;;;;;5.88;3.10;;;23.10;72.70;;;;;;5000771;28;20043;-78
2022/07/29 03:46:41;;;;;;;8.52;3.55;;;23.10;73.40;;;;;;4987676;28;20043;-78
2022/07/29 03:49:11;;;;;;;6.35;3.92;;;23.10;73.10;;;;;;4987961;28;20057;-77
2022/07/29 03:51:38;;;;;;;6.75;3.50;;;23.10;72.40;;;;;;4960680;28;20049;-78
2022/07/29 03:54:07;;;;;;;5.57;3.45;;;23.00;72.60;;;;;;4977797;28;20042;-77
2022/07/29 03:56:39;;;;;;;5.78;3.55;;;23.00;72.40;;;;;;4982916;28;20117;-78
2022/07/29 03:59:08;;;;;;;7.87;3.27;;;23.00;72.30;;;;;;5000728;28;20069;-78
2022/07/29 04:01:36;;;;;;;7.40;4.13;;;23.00;72.30;;;;;;4965832;28;20098;-79
2022/07/29 04:04:05;;;;;;;5.07;3.05;;;22.90;72.50;;;;;;4967441;28;20133;-78
2022/07/29 04:06:45;;;;;;;9.13;4.00;;;23.00;72.80;;;;;;4980601;28;20062;-77
2022/07/29 04:09:14;;;;;;;5.30;3.73;;;23.10;72.40;;;;;;4982150;28;20062;-78
2022/07/29 04:11:42;;;;;;;7.07;3.75;;;23.10;72.20;;;;;;4970324;28;20038;-78
2022/07/29 04:14:30;;;;;;;7.82;4.18;;;23.10;72.80;;;;;;5001238;28;20042;-78
2022/07/29 04:16:58;;;;;;;5.72;3.58;;;23.10;72.60;;;;;;4974435;28;20045;-78
2022/07/29 04:19:25;;;;;;;7.75;3.97;;;23.10;72.20;;;;;;4985398;28;20405;-79
2022/07/29 04:21:52;;;;;;;6.30;3.88;;;23.10;72.80;;;;;;4997007;28;20149;-77
2022/07/29 04:24:20;;;;;;;5.72;3.22;;;23.20;72.60;;;;;;4981210;28;20050;-78
2022/07/29 04:26:48;;;;;;;8.43;3.35;;;23.20;72.20;;;;;;4964334;28;20042;-78
2022/07/29 04:29:15;;;;;;;6.72;3.53;;;23.20;71.90;;;;;;4979698;28;20069;-78
2022/07/29 04:31:43;;;;;;;9.35;3.88;;;23.20;72.20;;;;;;4968258;28;20046;-79
2022/07/29 04:34:11;;;;;;;13.35;3.60;;;23.20;71.80;;;;;;4967197;28;20049;-78
2022/07/29 04:36:39;;;;;;;14.35;3.63;;;23.10;71.70;;;;;;4997045;28;20042;-77
2022/07/29 04:39:06;;;;;;;4.95;3.45;;;23.20;71.90;;;;;;4987348;28;20058;-79
2022/07/29 04:41:34;;;;;;;7.10;3.28;;;23.20;71.40;;;;;;4965359;28;20046;-78
2022/07/29 04:44:04;;;;;;;7.30;2.90;;;23.30;71.80;;;;;;4987991;28;20120;-78
2022/07/29 04:46:34;;;;;;;5.82;3.45;;;23.20;71.80;;;;;;5005630;28;20054;-78
2022/07/29 04:49:03;;;;;;;5.05;3.17;;;23.20;71.30;;;;;;4987586;28;20042;-78
2022/07/29 04:51:30;;;;;;;4.80;3.35;;;23.30;71.20;;;;;;4982358;28;20078;-77
2022/07/29 04:53:58;;;;;;;9.18;4.28;;;23.40;71.20;;;;;;4993181;28;20124;-78
2022/07/29 04:56:26;;;;;;;6.65;3.40;;;23.40;71.40;;;;;;5001427;28;20356;-78
2022/07/29 04:58:56;;;;;;;5.10;3.10;;;23.40;71.20;;;;;;4975852;28;20050;-79
2022/07/29 05:01:23;;;;;;;5.32;3.05;;;23.40;71.60;;;;;;4987042;28;20042;-78
2022/07/29 05:03:51;;;;;;;7.32;3.45;;;23.60;70.80;;;;;;4972402;28;20544;-79
2022/07/29 05:06:24;;;;;;;6.07;3.80;;;23.60;70.60;;;;;;4991568;28;20046;-79
2022/07/29 05:08:51;;;;;;;6.50;3.80;;;23.60;70.40;;;;;;4973773;28;20067;-81
2022/07/29 05:11:19;;;;;;;9.95;3.20;;;23.80;70.00;;;;;;4987821;28;20648;-79
2022/07/29 05:13:49;;;;;;;5.00;3.10;;;23.80;69.70;;;;;;5004089;28;20058;-79
2022/07/29 05:16:17;;;;;;;7.35;3.28;;;23.90;69.80;;;;;;4989949;28;20571;-80
2022/07/29 05:18:44;;;;;;;8.05;3.33;;;24.10;69.40;;;;;;4972932;28;20124;-79
2022/07/29 05:21:12;;;;;;;5.15;3.60;;;24.20;69.30;;;;;;5000597;28;20520;-79
2022/07/29 05:23:39;;;;;;;6.35;3.20;;;24.30;68.10;;;;;;4970976;28;20148;-83
2022/07/29 05:26:07;;;;;;;3.63;3.03;;;24.40;67.70;;;;;;4997710;28;20092;-79
2022/07/29 05:28:34;;;;;;;3.70;3.10;;;24.60;67.40;;;;;;4996743;28;20508;-78
2022/07/29 05:31:02;;;;;;;4.45;3.60;;;24.60;67.00;;;;;;4989470;28;20050;-84
2022/07/29 05:33:30;;;;;;;7.00;3.28;;;24.70;66.60;;;;;;4971872;28;20054;-81
2022/07/29 05:36:06;;;;;;;9.43;3.63;;;24.80;66.40;;;;;;4985042;28;20085;-81
2022/07/29 05:38:37;;;;;;;4.43;3.40;;;24.80;65.90;;;;;;4998247;28;20070;-82
2022/07/29 05:41:05;;;;;;;4.85;3.30;;;24.90;65.90;;;;;;4980546;28;20043;-88
2022/07/29 05:43:33;;;;;;;7.22;3.78;;;24.90;65.50;;;;;;4992089;28;20054;-79
2022/07/29 05:46:00;;;;;;;5.78;3.20;;;25.00;65.60;;;;;;4990694;28;20046;-76
2022/07/29 05:48:28;;;;;;;5.93;3.28;;;25.00;65.50;;;;;;4983125;28;20080;-77
2022/07/29 05:50:55;;;;;;;5.30;3.50;;;25.10;65.30;;;;;;4972308;28;20054;-77
2022/07/29 05:53:23;;;;;;;8.70;3.92;;;25.20;65.20;;;;;;4982975;28;20046;-79
2022/07/29 05:55:51;;;;;;;4.63;3.05;;;25.30;65.00;;;;;;4972260;28;20058;-79
2022/07/29 05:58:19;;;;;;;4.60;3.22;;;25.50;65.10;;;;;;4969156;28;20047;-78
2022/07/29 06:00:47;;;;;;;4.65;3.65;;;25.50;64.60;;;;;;4985162;28;20046;-77
2022/07/29 06:03:15;;;;;;;4.53;3.42;;;25.70;64.40;;;;;;4966160;28;20137;-79
2022/07/29 06:05:42;;;;;;;3.95;3.35;;;25.80;64.00;;;;;;4987363;28;20133;-78
2022/07/29 06:08:10;;;;;;;6.70;3.30;;;25.70;64.00;;;;;;4979986;28;20054;-77
2022/07/29 06:10:38;;;;;;;5.28;3.55;;;25.90;64.30;;;;;;4970101;28;20042;-78
2022/07/29 06:13:05;;;;;;;7.25;3.55;;;26.00;64.90;;;;;;4978512;28;20057;-77
2022/07/29 06:15:33;;;;;;;4.72;3.20;;;26.20;64.50;;;;;;4966790;28;20035;-77
2022/07/29 06:18:00;;;;;;;5.20;3.38;;;26.30;63.70;;;;;;4998073;28;20137;-87
2022/07/29 06:20:30;;;;;;;6.68;3.40;;;26.30;63.70;;;;;;4990273;28;20920;-83
2022/07/29 06:22:59;;;;;;;4.80;3.63;;;26.40;63.30;;;;;;4989896;28;20085;-77
2022/07/29 06:25:29;;;;;;;6.07;3.78;;;26.60;63.40;;;;;;4966719;28;20051;-81
2022/07/29 06:27:57;;;;;;;6.35;3.58;;;26.80;63.10;;;;;;5015342;28;20436;-82
2022/07/29 06:30:24;;;;;;;7.43;3.33;;;26.80;63.10;;;;;;4966453;28;20071;-82
2022/07/29 06:32:51;;;;;;;8.02;3.88;;;26.90;62.60;;;;;;4970499;28;20074;-85
2022/07/29 06:35:19;;;;;;;5.38;3.40;;;26.90;62.50;;;;;;5002893;28;20043;-82
2022/07/29 06:38:06;;;;;;;5.30;3.50;;;26.90;62.40;;;;;;4986554;28;20065;-77
2022/07/29 06:41:07;;;;;;;5.22;3.97;;;27.10;62.40;;;;;;4994548;28;20811;-79
2022/07/29 06:43:40;;;;;;;5.65;4.07;;;26.90;62.80;;;;;;4983210;28;20077;-79
2022/07/29 06:46:20;;;;;;;4.78;3.63;;;26.90;64.30;;;;;;4980490;28;20551;-79
2022/07/29 06:48:49;;;;;;;5.25;3.65;;;26.80;63.20;;;;;;4964124;28;20041;-79
2022/07/29 06:51:17;;;;;;;5.40;3.13;;;27.10;64.40;;;;;;4983025;28;20141;-81
2022/07/29 06:53:51;;;;;;;6.50;3.42;;;27.20;63.50;;;;;;4981203;28;20152;-78
2022/07/29 06:56:26;;;;;;;5.53;3.22;;;27.40;63.10;;;;;;4986076;28;20097;-79
2022/07/29 06:58:54;;;;;;;6.22;3.50;;;27.40;62.70;;;;;;4963484;28;20039;-81
2022/07/29 07:01:21;;;;;;;5.20;3.83;;;27.40;62.60;;;;;;4987221;28;20081;-87
2022/07/29 07:03:49;;;;;;;4.65;3.80;;;27.30;62.40;;;;;;4993424;28;20050;-89
2022/07/29 07:06:16;;;;;;;7.20;3.70;;;27.20;63.10;;;;;;4997398;28;20059;-78
2022/07/29 07:08:44;;;;;;;5.80;3.83;;;27.20;62.70;;;;;;4983755;28;20062;-78
2022/07/29 07:11:11;;;;;;;6.00;3.60;;;27.40;63.00;;;;;;4969911;28;20073;-78
2022/07/29 07:13:39;;;;;;;7.72;3.53;;;27.60;62.10;;;;;;4972377;28;20173;-78
2022/07/29 07:16:06;;;;;;;6.18;3.60;;;27.80;63.80;;;;;;4973150;28;20652;-78
2022/07/29 07:18:33;;;;;;;6.35;3.60;;;27.90;62.10;;;;;;4958287;28;20065;-78
2022/07/29 07:21:01;;;;;;;4.72;3.22;;;28.10;61.70;;;;;;4954491;28;20611;-78
2022/07/29 07:23:29;;;;;;;6.35;3.70;;;28.10;61.10;;;;;;4973100;28;20046;-80
2022/07/29 07:25:56;;;;;;;4.13;3.60;;;28.00;61.10;;;;;;4969977;28;20050;-83
2022/07/29 07:28:23;;;;;;;17.27;4.40;;;28.00;61.10;;;;;;4990382;28;20137;-80
2022/07/29 07:30:51;;;;;;;4.70;3.17;;;27.90;61.60;;;;;;4977216;28;20050;-78
2022/07/29 07:33:19;;;;;;;5.43;3.60;;;28.00;61.70;;;;;;4951584;28;20531;-80
2022/07/29 07:35:47;;;;;;;5.57;3.33;;;28.10;61.60;;;;;;4990978;28;20492;-80
2022/07/29 07:38:14;;;;;;;6.45;3.83;;;28.30;60.80;;;;;;5001015;28;20054;-78
2022/07/29 07:40:42;;;;;;;4.90;3.35;;;28.50;61.10;;;;;;4977559;28;20046;-81
2022/07/29 07:43:09;;;;;;;4.80;3.78;;;28.70;60.50;;;;;;4952134;28;20053;-84
2022/07/29 07:45:36;;;;;;;6.65;3.92;;;28.70;59.90;;;;;;4968258;28;20046;-78
2022/07/29 07:48:05;;;;;;;7.65;3.30;;;28.80;60.60;;;;;;4990638;28;20098;-80
2022/07/29 07:50:32;;;;;;;5.15;3.80;;;29.00;61.00;;;;;;4985212;28;20038;-82
2022/07/29 07:53:01;;;;;;;6.38;3.83;;;29.00;59.70;;;;;;4965176;28;20050;-81
2022/07/29 07:55:29;;;;;;;4.85;3.50;;;29.00;59.50;;;;;;4993419;28;20066;-80
2022/07/29 07:58:16;;;;;;;4.15;3.17;;;29.10;59.60;;;;;;4993129;28;20630;-84
2022/07/29 08:00:43;;;;;;;4.78;3.47;;;29.30;59.80;;;;;;4968667;28;20046;-79
2022/07/29 08:03:13;;;;;;;7.63;3.72;;;29.20;59.20;;;;;;4956044;28;20043;-79
2022/07/29 08:05:43;;;;;;;;;;;29.30;59.50;;;;;;4955231;28;20529;-79
2022/07/29 08:08:11;;;;;;;4.78;3.33;;;29.40;59.30;;;;;;4954130;28;19999;-80
2022/07/29 08:10:55;;;;;;;4.88;3.47;;;29.40;58.80;;;;;;4967410;28;20078;-80
2022/07/29 08:13:25;;;;;;;5.20;3.70;;;29.30;58.50;;;;;;5010085;28;20045;-83
2022/07/29 08:15:59;;;;;;;4.78;3.30;;;29.40;59.10;;;;;;4958397;28;20181;-80
2022/07/29 08:18:29;;;;;;;7.90;3.40;;;29.50;59.20;;;;;;4982719;28;20482;-80
2022/07/29 08:20:58;;;;;;;6.28;3.50;;;29.40;58.60;;;;;;4988865;28;20094;-79
2022/07/29 08:23:26;;;;;;;3.53;3.05;;;29.50;58.70;;;;;;4990103;28;20042;-79
2022/07/29 08:26:14;;;;;;;6.05;3.88;;;29.60;58.70;;;;;;4981762;28;20140;-79
2022/07/29 08:28:45;;;;;;;4.32;3.20;;;29.70;58.10;;;;;;4967608;28;20142;-80
2022/07/29 08:31:13;;;;;;;4.43;3.65;;;29.80;57.90;;;;;;4989641;28;20039;-81
2022/07/29 08:33:42;;;;;;;6.85;3.78;;;29.80;58.20;;;;;;4981726;28;20058;-79
2022/07/29 08:36:09;;;;;;;4.93;3.72;;;29.90;57.60;;;;;;4963184;28;20046;-79
2022/07/29 08:38:37;;;;;;;6.03;3.45;;;30.00;58.60;;;;;;4992415;28;20062;-81
2022/07/29 08:41:04;;;;;;;7.10;3.50;;;30.10;56.50;;;;;;4979704;28;20123;-81
2022/07/29 08:43:34;;;;;;;5.78;3.38;;;30.20;56.90;;;;;;4962955;28;20077;-80
2022/07/29 08:46:02;;;;;;;5.22;3.30;;;30.30;56.40;;;;;;4979701;28;20133;-79
2022/07/29 08:48:30;;;;;;;5.60;3.17;;;30.30;57.30;;;;;;5005555;28;20050;-79
2022/07/29 08:50:58;;;;;;;4.60;2.78;;;30.30;56.40;;;;;;4956157;28;20052;-79
2022/07/29 08:53:27;;;;;;;6.63;2.90;;;30.40;54.80;;;;;;4990479;28;20053;-79
2022/07/29 08:55:55;;;;;;;3.97;2.95;;;30.40;54.10;;;;;;4978420;28;20494;-81
2022/07/29 08:58:24;;;;;;;3.80;2.28;;;30.40;54.40;;;;;;4992047;28;20073;-81
2022/07/29 09:00:54;;;;;;;4.40;2.97;;;30.50;54.80;;;;;;4986457;28;20047;-80
2022/07/29 09:03:31;;;;;;;5.38;3.13;;;30.50;55.40;;;;;;4977159;28;20149;-80
2022/07/29 09:05:59;;;;;;;4.25;3.15;;;30.60;54.70;;;;;;4978446;28;20038;-80
2022/07/29 09:08:27;;;;;;;3.33;2.55;;;30.70;54.80;;;;;;4980360;28;20034;-84
2022/07/29 09:10:58;;;;;;;3.55;2.70;;;30.70;53.20;;;;;;4971283;28;20050;-81
2022/07/29 09:13:28;;;;;;;3.67;2.72;;;30.70;54.20;;;;;;4973211;28;20054;-80
2022/07/29 09:15:55;;;;;;;3.10;2.70;;;30.80;53.50;;;;;;4987330;28;20034;-81
2022/07/29 09:18:43;;;;;;;5.82;2.85;;;30.90;54.10;;;;;;4984746;28;20134;-83
2022/07/29 09:24:08;;;;;;;3.22;2.53;;;30.90;53.30;;;;;;4988073;28;20047;-81
2022/07/29 09:26:43;;;;;;;6.65;2.92;;;30.90;52.20;;;;;;4983880;28;20053;-79
2022/07/29 09:29:12;;;;;;;2.60;2.20;;;31.00;53.70;;;;;;5015705;28;20555;-83
2022/07/29 09:31:42;;;;;;;7.60;2.85;;;31.10;51.40;;;;;;5005229;28;20109;-78
2022/07/29 09:34:11;;;;;;;3.53;2.03;;;31.00;51.20;;;;;;5002704;28;20047;-80
2022/07/29 09:36:42;;;;;;;3.45;2.28;;;30.90;50.90;;;;;;4984072;28;20110;-80
2022/07/29 09:39:10;;;;;;;5.35;2.30;;;31.00;51.80;;;;;;5003246;28;20145;-82
2022/07/29 09:42:05;;;;;;;2.58;1.73;;;31.00;50.90;;;;;;4983423;28;20046;-80
2022/07/29 09:44:44;;;;;;;2.65;2.45;;;31.10;51.20;;;;;;4969960;28;20057;-80
2022/07/29 09:47:12;;;;;;;3.05;2.40;;;31.20;51.90;;;;;;4964190;28;20046;-79
2022/07/29 09:49:59;;;;;;;3.88;2.53;;;31.20;51.10;;;;;;4983899;28;20050;-81
2022/07/29 09:52:28;;;;;;;3.15;2.22;;;31.20;51.10;;;;;;4994514;28;20152;-80
2022/07/29 09:55:06;;;;;;;3.08;2.20;;;31.20;51.30;;;;;;5000185;28;20042;-87
2022/07/29 09:57:34;;;;;;;3.40;1.70;;;31.20;49.90;;;;;;4983160;28;20345;-79
2022/07/29 10:03:04;;;;;;;3.00;2.28;;;31.20;49.50;;;;;;4994807;23;20736;-81
2022/07/29 10:05:32;;;;;;;2.90;1.77;;;31.40;50.60;;;;;;4834824;29;20053;-90
2022/07/29 10:08:03;;;;;;;3.67;2.80;;;31.50;49.50;;;;;;4842126;29;20053;-79
2022/07/29 10:10:32;;;;;;;4.47;2.00;;;31.40;49.40;;;;;;4850491;29;20044;-80
2022/07/29 10:13:06;;;;;;;3.45;2.00;;;31.40;49.70;;;;;;4837337;29;20045;-79
2022/07/29 10:15:43;;;;;;;2.15;1.45;;;31.40;49.10;;;;;;4857109;29;20128;-83
2022/07/29 10:18:14;;;;;;;4.97;1.75;;;31.40;48.00;;;;;;4857287;29;20049;-80
2022/07/29 10:20:41;;;;;;;4.38;2.30;;;31.40;48.80;;;;;;4854863;29;20037;-79
2022/07/29 10:23:09;;;;;;;5.18;1.50;;;31.20;49.00;;;;;;4851672;29;20064;-80
2022/07/29 10:25:37;;;;;;;3.03;1.67;;;31.20;48.70;;;;;;4854093;29;20038;-80
2022/07/29 10:28:05;;;;;;;3.08;1.73;;;31.10;48.10;;;;;;4857315;29;20160;-80
2022/07/29 10:30:33;;;;;;;2.28;1.40;;;30.90;49.20;;;;;;4866673;29;20491;-79
2022/07/29 10:33:22;;;;;;;2.50;1.40;;;30.80;48.40;;;;;;4853207;29;20052;-85
2022/07/29 10:36:18;;;;;;;2.10;1.83;;;31.00;49.70;;;;;;4870633;29;20037;-80
2022/07/29 10:39:18;;;;;;;4.75;2.00;;;31.30;49.20;;;;;;4853854;29;20064;-80
2022/07/29 10:42:13;;;;;;;4.80;1.90;;;31.40;49.10;;;;;;4852441;29;20049;-91
2022/07/29 10:45:03;;;;;;;5.63;1.88;;;31.60;48.30;;;;;;4862302;29;20060;-83
2022/07/29 10:47:31;;;;;;;2.70;1.38;;;31.70;48.70;;;;;;4857268;29;20083;-83
2022/07/29 10:50:06;;;;;;;3.60;1.95;;;31.80;48.70;;;;;;4867435;29;20140;-80
2022/07/29 10:52:58;;;;;;;2.88;2.05;;;31.80;48.10;;;;;;4850145;29;20114;-79
2022/07/29 10:55:39;;;;;;;3.70;1.77;;;31.90;48.20;;;;;;4869402;29;20048;-79
2022/07/29 10:58:16;;;;;;;5.22;1.88;;;31.90;48.70;;;;;;4837308;29;20053;-81
2022/07/29 11:00:47;;;;;;;3.30;1.83;;;32.00;48.20;;;;;;4869832;29;20045;-80
2022/07/29 11:03:41;;;;;;;5.55;1.90;;;32.10;47.60;;;;;;4852851;29;20061;-81
2022/07/29 11:06:16;;;;;;;3.10;1.35;;;32.30;46.70;;;;;;4843310;29;20046;-83
2022/07/29 11:09:17;;;;;;;2.63;1.67;;;32.30;47.70;;;;;;4834674;29;20049;-82
2022/07/29 11:11:51;;;;;;;3.58;2.10;;;32.10;46.10;;;;;;4850632;29;20093;-78
2022/07/29 11:14:55;;;;;;;2.13;1.70;;;31.80;47.10;;;;;;4852598;29;20102;-80
2022/07/29 11:17:23;;;;;;;5.57;2.17;;;31.70;47.50;;;;;;4850638;29;20049;-80
2022/07/29 11:19:51;;;;;;;4.50;2.10;;;31.90;48.10;;;;;;4853386;29;20172;-80
2022/07/29 11:22:35;;;;;;;3.42;1.80;;;32.00;47.50;;;;;;4848523;29;20176;-80
2022/07/29 11:25:16;;;;;;;5.75;1.70;;;32.10;46.80;;;;;;4840969;29;20117;-82
2022/07/29 11:27:47;;;;;;;5.57;2.05;;;32.20;48.30;;;;;;4830169;29;20141;-81
2022/07/29 11:30:15;;;;;;;3.72;1.88;;;32.40;47.80;;;;;;4852331;29;20053;-80
2022/07/29 11:32:45;;;;;;;3.72;2.00;;;32.10;48.00;;;;;;4841286;29;20045;-85
2022/07/29 11:35:32;;;;;;;3.03;2.00;;;32.00;48.50;;;;;;4853625;29;20041;-82
2022/07/29 11:38:26;;;;;;;2.60;1.60;;;32.10;47.80;;;;;;4848644;29;20069;-82
2022/07/29 11:41:16;;;;;;;1.83;1.50;;;32.20;47.20;;;;;;4849060;29;21749;-79
2022/07/29 11:43:58;;;;;;;3.10;1.67;;;32.10;46.50;;;;;;4836285;29;20105;-84
2022/07/29 11:46:50;;;;;;;2.13;1.50;;;32.00;46.10;;;;;;4850875;29;20049;-81
2022/07/29 11:49:22;;;;;;;2.88;1.70;;;31.90;46.70;;;;;;4838151;29;20563;-79
2022/07/29 11:52:02;;;;;;;3.00;1.75;;;32.00;47.50;;;;;;4837309;29;20049;-80
2022/07/29 11:54:34;;;;;;;2.97;1.92;;;31.90;46.50;;;;;;4835199;29;20069;-82
2022/07/29 11:57:21;;;;;;;3.00;2.53;;;32.10;46.50;;;;;;4855970;29;20049;-79
2022/07/29 12:00:10;;;;;;;3.63;1.73;;;32.20;46.70;;;;;;4857653;29;20053;-79
2022/07/29 12:02:41;;;;;;;3.70;2.22;;;32.30;47.00;;;;;;4852459;29;20061;-80
2022/07/29 12:05:13;;;;;;;3.13;2.10;;;32.30;47.20;;;;;;4860928;29;20049;-81
2022/07/29 12:07:40;;;;;;;3.22;2.00;;;32.30;46.70;;;;;;4855262;29;20053;-80
2022/07/29 12:10:13;;;;;;;3.03;1.90;;;32.40;46.40;;;;;;4873712;29;20049;-80
2022/07/29 12:12:55;;;;;;;2.22;1.90;;;32.30;46.70;;;;;;4840172;29;20055;-80
2022/07/29 12:15:23;;;;;;;1.98;1.70;;;32.30;46.90;;;;;;4850599;29;20137;-79
2022/07/29 12:18:19;;;;;;;2.75;1.80;;;32.40;47.40;;;;;;4872569;29;20074;-89
2022/07/29 12:21:03;;;;;;;2.20;1.80;;;32.50;46.30;;;;;;4841219;29;20140;-80
2022/07/29 12:23:32;;;;;;;1.80;1.55;;;32.60;46.20;;;;;;4850534;29;20072;-80
2022/07/29 12:26:05;;;;;;;3.40;1.63;;;32.70;46.80;;;;;;4838468;29;20503;-79
2022/07/29 12:28:38;;;;;;;3.10;1.83;;;32.70;45.50;;;;;;4855920;29;20045;-81
2022/07/29 12:31:12;;;;;;;1.95;1.50;;;32.60;45.90;;;;;;4842411;29;20061;-80
2022/07/29 12:33:40;;;;;;;4.47;1.65;;;32.70;46.00;;;;;;4845385;29;20054;-82
2022/07/29 12:36:08;;;;;;;3.97;1.85;;;32.70;46.20;;;;;;4859539;29;20041;-81
2022/07/29 12:38:44;;;;;;;3.13;1.50;;;32.60;46.40;;;;;;4859689;29;20479;-80
2022/07/29 12:41:12;;;;;;;3.00;1.80;;;32.70;45.60;;;;;;4833084;29;20094;-82
2022/07/29 12:43:53;;;;;;;2.85;1.48;;;32.70;45.70;;;;;;4837500;29;20050;-83
2022/07/29 12:46:20;;;;;;;3.03;1.52;;;32.80;45.50;;;;;;4851503;29;20060;-80
2022/07/29 12:48:56;;;;;;;2.80;1.92;;;32.50;46.70;;;;;;4835804;29;20297;-80
2022/07/29 12:51:38;;;;;;;1.70;1.60;;;32.30;46.40;;;;;;4845438;29;20050;-85
2022/07/29 12:54:10;;;;;;;;;;;32.00;46.10;;;;;;4840646;29;20141;-80
2022/07/29 12:56:39;;;;;;;4.32;1.85;;;31.90;46.20;;;;;;4859006;29;19930;-80
2022/07/29 12:59:21;;;;;;;6.03;1.88;;;31.80;46.40;;;;;;4849800;29;20081;-80
2022/07/29 13:01:50;;;;;;;2.10;1.58;;;31.80;46.80;;;;;;4861476;29;20065;-80
2022/07/29 13:04:29;;;;;;;2.25;1.80;;;32.00;46.10;;;;;;4837773;29;20072;-79
2022/07/29 13:07:05;;;;;;;1.80;1.63;;;32.10;46.10;;;;;;4861324;29;20076;-82
2022/07/29 13:09:43;;;;;;;4.43;1.75;;;32.20;46.60;;;;;;4861213;29;20057;-80
2022/07/29 13:12:13;;;;;;;3.60;1.80;;;32.40;46.90;;;;;;4839404;29;20045;-80
2022/07/29 13:14:43;;;;;;;2.85;1.83;;;32.50;45.60;;;;;;4847022;29;20061;-79
2022/07/29 13:17:16;;;;;;;4.85;1.60;;;32.50;46.00;;;;;;4837141;29;20044;-80
2022/07/29 13:19:44;;;;;;;2.80;1.52;;;32.60;46.50;;;;;;4852234;29;20053;-80
2022/07/29 13:22:17;;;;;;;3.72;2.00;;;32.80;45.70;;;;;;4876730;29;20045;-80